Time;durP1;ratioP1;P1;durP2;ratioP2;P2;SDS_P1;SDS_P2;PMS_P1;PMS_P2;Temp;Humidity;BMP_temperature;BMP_pressure;BME280_temperature;BME280_humidity;BME280_pressure;Samples;Min_cycle;Max_cycle;Signal;HPM_P1;HPM_P2
2023/12/13 00:01:50;;;;;;;25.23;13.65;;;;;;;3.52;100.00;99541.91;7394952;19;20011;-65
2023/12/13 00:04:18;;;;;;;22.45;13.73;;;;;;;3.56;100.00;99534.06;7394647;19;20082;-65
2023/12/13 00:06:47;;;;;;;23.73;14.07;;;;;;;3.60;100.00;99534.88;7394927;19;20014;-65
2023/12/13 00:09:15;;;;;;;19.48;12.35;;;;;;;3.65;100.00;99527.03;7394508;19;20077;-65
2023/12/13 00:11:46;;;;;;;25.23;14.07;;;;;;;3.67;100.00;99525.28;7394453;19;20073;-65
2023/12/13 00:14:15;;;;;;;22.58;13.55;;;;;;;3.69;100.00;99531.28;7394834;19;20017;-68
2023/12/13 00:16:43;;;;;;;19.58;13.18;;;;;;;3.70;100.00;99530.44;7394351;19;20482;-68
2023/12/13 00:19:11;;;;;;;16.65;12.32;;;;;;;3.71;100.00;99526.97;7394615;19;20087;-67
2023/12/13 00:21:40;;;;;;;22.70;12.52;;;;;;;3.72;100.00;99521.75;7396177;19;20015;-67
2023/12/13 00:24:08;;;;;;;22.10;13.07;;;;;;;3.72;100.00;99516.56;7394321;19;20090;-67
2023/12/13 00:26:37;;;;;;;22.33;13.00;;;;;;;3.73;100.00;99515.69;7394378;19;20033;-67
2023/12/13 00:29:09;;;;;;;19.13;11.90;;;;;;;3.72;100.00;99510.53;7395962;19;20011;-67
2023/12/13 00:31:38;;;;;;;20.75;12.70;;;;;;;3.74;100.00;99513.94;7394216;19;20487;-67
2023/12/13 00:34:06;;;;;;;19.92;13.60;;;;;;;3.74;100.00;99499.25;7394357;19;20082;-67
2023/12/13 00:36:34;;;;;;;20.05;12.85;;;;;;;3.74;100.00;99491.47;7395721;19;20085;-67
2023/12/13 00:39:03;;;;;;;21.40;13.05;;;;;;;3.75;100.00;99488.00;7395602;19;20015;-68
2023/12/13 00:41:32;;;;;;;20.90;12.77;;;;;;;3.75;100.00;99485.41;7395190;19;20473;-68
2023/12/13 00:44:00;;;;;;;22.10;12.65;;;;;;;3.75;100.00;99475.03;7394319;19;20014;-67
2023/12/13 00:46:32;;;;;;;19.38;11.98;;;;;;;3.77;100.00;99480.19;7395392;19;20372;-68
2023/12/13 00:49:00;;;;;;;19.73;12.75;;;;;;;3.78;100.00;99478.44;7395903;19;20074;-68
2023/12/13 00:51:29;;;;;;;19.67;12.63;;;;;;;3.78;100.00;99473.25;7394101;19;20006;-67
2023/12/13 00:53:57;;;;;;;23.48;13.52;;;;;;;3.80;100.00;99472.34;7394024;19;20015;-67
2023/12/13 00:56:28;;;;;;;23.52;14.52;;;;;;;3.80;100.00;99466.31;7394871;19;20426;-68
2023/12/13 00:58:56;;;;;;;22.83;13.00;;;;;;;3.79;100.00;99477.56;7395571;19;20029;-67
2023/12/13 01:01:25;;;;;;;22.50;13.88;;;;;;;3.80;100.00;99472.34;7394950;19;20039;-68
2023/12/13 01:03:56;;;;;;;23.45;13.85;;;;;;;3.81;100.00;99470.63;7394661;19;20019;-68
2023/12/13 01:06:24;;;;;;;24.88;13.35;;;;;;;3.82;100.00;99480.97;7402603;19;20368;-68
2023/12/13 01:08:53;;;;;;;21.90;13.70;;;;;;;3.84;100.00;99486.13;7399591;19;20077;-69
2023/12/13 01:11:24;;;;;;;24.48;14.60;;;;;;;3.84;100.00;99488.72;7400675;19;20070;-68
2023/12/13 01:13:52;;;;;;;20.05;13.68;;;;;;;3.85;100.00;99485.25;7400675;19;20095;-68
2023/12/13 01:16:21;;;;;;;23.45;13.52;;;;;;;3.86;100.00;99485.22;7402199;19;20070;-68
2023/12/13 01:18:49;;;;;;;21.20;14.57;;;;;;;3.87;100.00;99484.34;7401845;19;20078;-68
2023/12/13 01:21:20;;;;;;;26.70;14.40;;;;;;;3.88;100.00;99483.47;7403400;19;20078;-68
2023/12/13 01:23:49;;;;;;;22.38;14.07;;;;;;;3.89;100.00;99473.94;7400442;19;20022;-67
2023/12/13 01:26:17;;;;;;;23.38;14.50;;;;;;;3.90;100.00;99475.66;7401895;19;20070;-68
2023/12/13 01:28:46;;;;;;;24.70;14.35;;;;;;;3.90;100.00;99475.66;7401869;19;20074;-68
2023/12/13 01:31:14;;;;;;;20.92;13.43;;;;;;;3.90;100.00;99470.47;7399962;19;20364;-68
2023/12/13 01:33:43;;;;;;;25.08;14.45;;;;;;;3.90;100.00;99479.13;7400085;19;20024;-67
2023/12/13 01:36:12;;;;;;;27.40;15.13;;;;;;;3.90;100.00;99473.94;7401277;19;20487;-68
2023/12/13 01:38:43;;;;;;;26.42;14.93;;;;;;;3.92;100.00;99476.50;7401184;19;20074;-68
2023/12/13 01:41:11;;;;;;;25.58;14.63;;;;;;;3.92;100.00;99466.13;7398509;19;20015;-68
2023/12/13 01:43:40;;;;;;;22.77;14.50;;;;;;;3.91;100.00;99460.06;7401357;19;20014;-68
2023/12/13 01:46:09;;;;;;;30.05;14.52;;;;;;;3.91;100.00;99461.81;7400963;19;20020;-67
2023/12/13 01:48:37;;;;;;;25.90;15.60;;;;;;;3.91;100.00;99459.22;7401210;19;20074;-68
2023/12/13 01:51:06;;;;;;;23.67;15.05;;;;;;;3.91;100.00;99446.25;7400076;19;20026;-68
2023/12/13 01:53:43;;;;;;;26.80;15.13;;;;;;;3.90;100.00;99436.75;7399179;19;20031;-67
2023/12/13 01:56:15;;;;;;;26.20;15.57;;;;;;;3.89;100.00;99429.84;7401379;19;20085;-68
2023/12/13 01:58:44;;;;;;;30.52;16.45;;;;;;;3.87;100.00;99421.25;7401286;19;20011;-69
2023/12/13 02:01:12;;;;;;;24.08;15.25;;;;;;;3.86;100.00;99424.72;7400407;19;20379;-68
2023/12/13 02:03:42;;;;;;;25.52;15.50;;;;;;;3.85;100.00;99434.22;7398583;19;20022;-67
2023/12/13 02:06:10;;;;;;;28.58;16.20;;;;;;;3.84;100.00;99442.03;7400573;19;20035;-68
2023/12/13 02:08:39;;;;;;;23.17;14.98;;;;;;;3.85;100.00;99433.38;7400547;19;20079;-67
2023/12/13 02:11:09;;;;;;;28.48;16.70;;;;;;;3.83;100.00;99425.59;7399495;19;20359;-67
2023/12/13 02:13:41;;;;;;;26.00;15.65;;;;;;;3.85;100.00;99422.97;7399783;19;20010;-67
2023/12/13 02:16:10;;;;;;;26.70;16.48;;;;;;;3.86;100.00;99419.50;7400465;19;20031;-68
2023/12/13 02:18:39;;;;;;;27.27;16.33;;;;;;;3.84;100.00;99416.06;7400258;19;20014;-68
2023/12/13 02:21:08;;;;;;;25.88;15.95;;;;;;;3.84;100.00;99422.16;7399757;19;20505;-68
2023/12/13 02:23:40;;;;;;;29.60;16.17;;;;;;;3.86;100.00;99415.16;7398706;19;20024;-68
2023/12/13 02:26:09;;;;;;;25.60;15.65;;;;;;;3.86;100.00;99409.97;7400103;19;20006;-68
2023/12/13 02:28:35;;;;;;;30.48;15.93;;;;;;;3.86;100.00;99403.94;7399562;19;20362;-67
2023/12/13 02:31:05;;;;;;;30.55;16.73;;;;;;;3.87;100.00;99408.25;7399123;19;20029;-67
2023/12/13 02:33:34;;;;;;;28.00;15.90;;;;;;;3.89;100.00;99414.25;7398545;19;20014;-68
2023/12/13 02:36:04;;;;;;;31.23;16.67;;;;;;;3.88;100.00;99413.41;7399652;19;20014;-68
2023/12/13 02:38:32;;;;;;;24.65;15.80;;;;;;;3.90;100.00;99413.38;7399568;19;20011;-68
2023/12/13 02:41:03;;;;;;;27.15;16.25;;;;;;;3.90;100.00;99414.25;7399429;19;20101;-68
2023/12/13 02:43:32;;;;;;;26.10;15.00;;;;;;;3.92;100.00;99414.22;7398553;19;20041;-68
2023/12/13 02:46:00;;;;;;;26.50;16.77;;;;;;;3.92;100.00;99409.03;7397108;19;20031;-68
2023/12/13 02:48:28;;;;;;;27.55;15.73;;;;;;;3.92;100.00;99398.66;7399337;19;20018;-68
2023/12/13 02:50:57;;;;;;;23.30;15.05;;;;;;;3.92;100.00;99398.66;7398330;19;20477;-68
2023/12/13 02:53:26;;;;;;;28.60;15.35;;;;;;;3.89;100.00;99394.38;7398097;19;20038;-67
2023/12/13 02:55:54;;;;;;;26.88;15.95;;;;;;;3.91;100.00;99395.19;7398985;19;20011;-68
2023/12/13 02:58:25;;;;;;;25.88;16.48;;;;;;;3.91;100.00;99391.75;7398858;19;20010;-68
2023/12/13 03:00:55;;;;;;;30.42;16.13;;;;;;;3.90;100.00;99384.84;7397045;19;20014;-68
2023/12/13 03:03:24;;;;;;;30.10;15.95;;;;;;;3.90;100.00;99390.03;7397144;19;20070;-68
2023/12/13 03:05:52;;;;;;;30.52;16.50;;;;;;;3.89;100.00;99381.41;7398940;19;20017;-69
2023/12/13 03:08:21;;;;;;;27.10;16.50;;;;;;;3.89;100.00;99371.03;7397696;19;20015;-68
2023/12/13 03:10:49;;;;;;;31.88;17.73;;;;;;;3.90;100.00;99382.25;7397602;19;20031;-67
2023/12/13 03:13:18;;;;;;;32.40;16.30;;;;;;;3.89;100.00;99377.94;7398380;19;20018;-67
2023/12/13 03:15:49;;;;;;;32.03;16.95;;;;;;;3.87;100.00;99375.38;7396223;19;20023;-67
2023/12/13 03:18:17;;;;;;;33.65;17.52;;;;;;;3.88;100.00;99377.09;7398620;19;20014;-67
2023/12/13 03:20:47;;;;;;;35.67;17.17;;;;;;;3.87;100.00;99369.34;7398100;19;20367;-67
2023/12/13 03:23:16;;;;;;;30.60;17.13;;;;;;;3.87;100.00;99366.75;7397117;19;20365;-66
2023/12/13 03:25:44;;;;;;;37.17;17.48;;;;;;;3.89;100.00;99359.78;7397877;19;20070;-67
2023/12/13 03:28:13;;;;;;;27.33;17.05;;;;;;;3.87;100.00;99365.00;7396491;19;20086;-67
2023/12/13 03:30:41;;;;;;;31.45;17.45;;;;;;;3.89;100.00;99365.84;7397666;19;20070;-67
2023/12/13 03:33:12;;;;;;;27.48;16.15;;;;;;;3.89;100.00;99360.66;7395698;19;20014;-67
2023/12/13 03:35:41;;;;;;;28.33;16.27;;;;;;;3.90;100.00;99356.31;7397404;19;20367;-68
2023/12/13 03:38:10;;;;;;;35.88;16.50;;;;;;;3.90;100.00;99358.91;7397487;19;20018;-67
2023/12/13 03:40:39;;;;;;;31.52;17.05;;;;;;;3.90;100.00;99351.13;7395580;19;20014;-68
2023/12/13 03:43:07;;;;;;;30.13;16.92;;;;;;;3.90;100.00;99348.53;7396680;19;20031;-67
2023/12/13 03:45:36;;;;;;;31.75;17.23;;;;;;;3.91;100.00;99347.66;7397338;19;20367;-67
2023/12/13 03:48:04;;;;;;;26.40;16.55;;;;;;;3.90;100.00;99348.53;7397243;19;20078;-67
2023/12/13 03:50:35;;;;;;;30.38;17.48;;;;;;;3.90;100.00;99343.34;7397238;19;20015;-67
2023/12/13 03:53:04;;;;;;;27.67;16.88;;;;;;;3.91;100.00;99348.50;7395200;19;20036;-67
2023/12/13 03:55:32;;;;;;;30.40;16.92;;;;;;;3.92;100.00;99349.38;7396596;19;20022;-67
2023/12/13 03:58:01;;;;;;;30.35;17.17;;;;;;;3.92;100.00;99345.00;7396641;19;20069;-67
2023/12/13 04:00:29;;;;;;;29.65;16.15;;;;;;;3.93;100.00;99348.47;7395904;19;20502;-67
2023/12/13 04:02:58;;;;;;;31.45;17.77;;;;;;;3.94;100.00;99350.16;7398615;19;20018;-68
2023/12/13 04:05:26;;;;;;;27.27;17.35;;;;;;;3.94;100.00;99344.97;7396782;19;20018;-68
2023/12/13 04:07:57;;;;;;;33.45;17.85;;;;;;;3.95;100.00;99346.69;7394832;19;20097;-69
2023/12/13 04:10:26;;;;;;;32.25;17.52;;;;;;;3.95;100.00;99344.09;7396298;19;20040;-68
2023/12/13 04:12:54;;;;;;;29.85;17.65;;;;;;;3.97;100.00;99336.28;7394238;19;20016;-68
2023/12/13 04:15:23;;;;;;;28.52;17.20;;;;;;;3.97;100.00;99336.28;7395539;19;20022;-68
2023/12/13 04:17:51;;;;;;;30.42;17.08;;;;;;;3.97;100.00;99339.75;7395906;19;20031;-66
2023/12/13 04:20:20;;;;;;;27.92;16.45;;;;;;;3.98;100.00;99344.06;7396055;19;20031;-68
2023/12/13 04:22:50;;;;;;;30.10;16.73;;;;;;;3.98;100.00;99335.41;7395742;19;20014;-69
2023/12/13 04:25:21;;;;;;;27.70;16.92;;;;;;;4.00;100.00;99341.44;7396059;19;20015;-68
2023/12/13 04:27:50;;;;;;;34.22;18.02;;;;;;;4.00;100.00;99337.09;7395637;19;20010;-68
2023/12/13 04:30:18;;;;;;;30.55;17.58;;;;;;;4.02;100.00;99332.75;7395843;19;20369;-68
2023/12/13 04:32:47;;;;;;;32.97;16.85;;;;;;;4.03;100.00;99336.19;7394183;19;20020;-68
2023/12/13 04:35:15;;;;;;;26.63;16.38;;;;;;;4.04;100.00;99324.91;7395591;19;20031;-67
2023/12/13 04:37:44;;;;;;;28.40;17.67;;;;;;;4.05;100.00;99326.66;7394703;19;20032;-68
2023/12/13 04:40:13;;;;;;;29.52;18.08;;;;;;;4.04;100.00;99323.19;7394647;19;20031;-68
2023/12/13 04:42:44;;;;;;;29.23;17.00;;;;;;;4.07;100.00;99323.13;7393718;19;20037;-69
2023/12/13 04:45:12;;;;;;;33.40;17.73;;;;;;;4.08;100.00;99326.56;7395773;19;20024;-68
2023/12/13 04:47:41;;;;;;;26.13;17.13;;;;;;;4.08;100.00;99327.44;7395493;19;20094;-69
2023/12/13 04:50:11;;;;;;;32.15;17.40;;;;;;;4.09;100.00;99325.69;7395604;19;20515;-70
2023/12/13 04:52:39;;;;;;;31.58;17.42;;;;;;;4.10;100.00;99321.38;7393628;19;20017;-69
2023/12/13 04:55:08;;;;;;;67.38;37.45;;;;;;;4.10;100.00;99317.03;7395303;19;20025;-69
2023/12/13 04:57:37;;;;;;;44.00;23.73;;;;;;;4.11;100.00;99316.16;7395155;19;20027;-69
2023/12/13 05:00:10;;;;;;;34.20;19.88;;;;;;;4.12;100.00;99319.59;7394671;19;20429;-68
2023/12/13 05:02:39;;;;;;;34.95;19.02;;;;;;;4.14;100.00;99318.69;7394970;19;20010;-69
2023/12/13 05:05:08;;;;;;;32.70;17.48;;;;;;;4.15;100.00;99322.16;7392720;19;20006;-68
2023/12/13 05:07:36;;;;;;;29.88;17.75;;;;;;;4.15;100.00;99312.59;7394687;19;20010;-68
2023/12/13 05:10:06;;;;;;;26.75;16.95;;;;;;;4.16;100.00;99314.31;7394412;19;20074;-68
2023/12/13 05:12:34;;;;;;;28.45;17.85;;;;;;;4.17;100.00;99317.75;7393425;19;20014;-68
2023/12/13 05:15:03;;;;;;;29.75;19.15;;;;;;;4.18;100.00;99316.88;7393612;19;20421;-68
2023/12/13 05:17:35;;;;;;;31.10;18.27;;;;;;;4.18;100.00;99309.09;7393952;19;20018;-68
2023/12/13 05:20:11;;;;;;;30.92;18.40;;;;;;;4.18;100.00;99315.16;7394490;19;20015;-69
2023/12/13 05:22:39;;;;;;;34.20;18.45;;;;;;;4.19;100.00;99323.78;7393360;19;20164;-68
2023/12/13 05:25:09;;;;;;;32.92;18.10;;;;;;;4.18;100.00;99317.75;7394226;19;20074;-68
2023/12/13 05:27:38;;;;;;;32.38;17.92;;;;;;;4.20;100.00;99315.13;7394344;19;20361;-68
2023/12/13 05:30:08;;;;;;;33.40;18.20;;;;;;;4.20;100.00;99309.94;7393839;19;20007;-67
2023/12/13 05:32:40;;;;;;;31.92;17.65;;;;;;;4.21;100.00;99314.25;7392539;19;20485;-68
2023/12/13 05:35:09;;;;;;;36.05;18.75;;;;;;;4.16;100.00;99303.09;7394162;19;20014;-67
2023/12/13 05:37:38;;;;;;;30.10;16.85;;;;;;;4.21;100.00;99309.06;7394044;19;20359;-68
2023/12/13 05:40:07;;;;;;;30.45;18.00;;;;;;;4.21;100.00;99316.84;7391413;19;20074;-68
2023/12/13 05:42:36;;;;;;;33.47;18.20;;;;;;;4.20;100.00;99307.34;7393166;19;20014;-69
2023/12/13 05:45:05;;;;;;;31.08;17.25;;;;;;;4.20;100.00;99310.78;7393702;19;20066;-68
2023/12/13 05:47:34;;;;;;;32.63;18.90;;;;;;;4.22;100.00;99310.75;7391687;19;20105;-68
2023/12/13 05:50:06;;;;;;;33.13;17.38;;;;;;;4.22;100.00;99306.44;7395839;19;20110;-68
2023/12/13 05:52:36;;;;;;;36.30;20.05;;;;;;;4.22;100.00;99309.03;7399945;19;20025;-68
2023/12/13 05:55:05;;;;;;;34.60;19.10;;;;;;;4.22;100.00;99313.34;7400411;19;20010;-69
2023/12/13 05:57:33;;;;;;;29.75;17.48;;;;;;;4.24;100.00;99311.59;7400223;19;20018;-68
2023/12/13 06:00:06;;;;;;;30.80;17.95;;;;;;;4.24;100.00;99306.38;7400135;19;20055;-69
2023/12/13 06:02:35;;;;;;;37.10;19.52;;;;;;;4.25;100.00;99310.69;7400325;19;20007;-69
2023/12/13 06:05:06;;;;;;;30.00;19.05;;;;;;;4.27;100.00;99310.66;7397330;19;20030;-68
2023/12/13 06:07:35;;;;;;;32.22;18.15;;;;;;;4.25;100.00;99313.31;7400194;19;20019;-68
2023/12/13 06:10:04;;;;;;;37.38;20.23;;;;;;;4.24;100.00;99311.59;7399611;19;20011;-69
2023/12/13 06:12:39;;;;;;;37.42;21.13;;;;;;;4.28;100.00;99314.97;7397183;19;20022;-69
2023/12/13 06:15:08;;;;;;;36.20;20.23;;;;;;;4.26;100.00;99309.81;7399673;19;20013;-68
2023/12/13 06:17:37;;;;;;;29.25;18.73;;;;;;;4.27;100.00;99315.84;7399213;19;20014;-68
2023/12/13 06:20:09;;;;;;;34.25;20.02;;;;;;;4.25;100.00;99308.09;7399579;19;20023;-68
2023/12/13 06:22:38;;;;;;;34.58;20.85;;;;;;;4.25;100.00;99308.09;7399693;19;20011;-67
2023/12/13 06:25:07;;;;;;;35.13;18.83;;;;;;;4.25;100.00;99313.31;7397039;19;20036;-68
2023/12/13 06:27:36;;;;;;;34.95;19.77;;;;;;;4.26;100.00;99308.94;7399318;19;20014;-68
2023/12/13 06:30:05;;;;;;;31.35;19.33;;;;;;;4.26;100.00;99296.84;7398988;19;20397;-68
2023/12/13 06:32:33;;;;;;;30.50;18.35;;;;;;;4.25;100.00;99297.72;7398021;19;20066;-68
2023/12/13 06:35:02;;;;;;;30.95;17.63;;;;;;;4.27;100.00;99303.72;7396166;19;20077;-68
2023/12/13 06:37:33;;;;;;;28.92;17.02;;;;;;;4.27;100.00;99292.50;7399058;19;20028;-68
2023/12/13 06:40:02;;;;;;;33.78;19.70;;;;;;;4.28;100.00;99294.22;7398932;19;20610;-68
2023/12/13 06:42:31;;;;;;;32.70;19.13;;;;;;;4.28;100.00;99297.66;7398398;19;20010;-69
2023/12/13 06:44:59;;;;;;;32.45;18.13;;;;;;;4.29;100.00;99294.16;7399098;19;20011;-68
2023/12/13 06:47:28;;;;;;;30.00;18.05;;;;;;;4.28;100.00;99295.06;7398649;19;20014;-67
2023/12/13 06:49:56;;;;;;;28.80;18.35;;;;;;;4.31;100.00;99305.41;7398892;19;20015;-68
2023/12/13 06:52:25;;;;;;;33.88;18.67;;;;;;;4.30;100.00;99300.25;7397828;19;20010;-68
2023/12/13 06:54:56;;;;;;;30.05;18.00;;;;;;;4.31;100.00;99301.94;7398331;19;20082;-67
2023/12/13 06:57:25;;;;;;;35.65;19.33;;;;;;;4.32;100.00;99304.53;7396129;19;20511;-68
2023/12/13 06:59:53;;;;;;;31.65;17.58;;;;;;;4.32;100.00;99304.53;7398228;19;20029;-68
2023/12/13 07:02:22;;;;;;;28.17;16.75;;;;;;;4.33;100.00;99305.34;7396106;19;20007;-68
2023/12/13 07:04:50;;;;;;;27.42;16.98;;;;;;;4.34;100.00;99301.88;7396774;19;20098;-69
2023/12/13 07:07:19;;;;;;;32.50;17.83;;;;;;;4.35;100.00;99308.78;7397934;19;20438;-68
2023/12/13 07:09:47;;;;;;;32.47;18.83;;;;;;;4.36;100.00;99307.88;7398067;19;20027;-68
2023/12/13 07:12:19;;;;;;;31.02;19.58;;;;;;;4.36;100.00;99305.28;7396271;19;20015;-68
2023/12/13 07:14:47;;;;;;;30.35;18.05;;;;;;;4.38;100.00;99308.72;7398923;19;20010;-68
2023/12/13 07:17:16;;;;;;;29.88;19.00;;;;;;;4.39;100.00;99313.03;7396207;19;20086;-68
2023/12/13 07:19:44;;;;;;;31.85;19.13;;;;;;;4.40;100.00;99309.56;7400360;19;20010;-69
2023/12/13 07:22:13;;;;;;;33.20;19.55;;;;;;;4.42;100.00;99315.56;7401872;19;20496;-68
2023/12/13 07:24:41;;;;;;;35.40;21.00;;;;;;;4.43;100.00;99311.25;7395267;19;20018;-69
2023/12/13 07:27:09;;;;;;;33.40;20.48;;;;;;;4.44;100.00;99319.00;7394435;19;20011;-68
2023/12/13 07:29:43;;;;;;;33.47;20.75;;;;;;;4.44;100.00;99310.34;7397296;19;20019;-68
2023/12/13 07:32:12;;;;;;;32.72;19.42;;;;;;;4.45;100.00;99307.72;7397302;19;20070;-69
2023/12/13 07:34:41;;;;;;;30.38;19.10;;;;;;;4.47;100.00;99305.09;7394806;19;20014;-67
2023/12/13 07:37:10;;;;;;;33.15;19.20;;;;;;;4.48;100.00;99306.81;7396289;19;20075;-68
2023/12/13 07:39:38;;;;;;;33.85;18.70;;;;;;;4.50;100.00;99313.69;7396810;19;20426;-67
2023/12/13 07:42:07;;;;;;;31.85;19.30;;;;;;;4.52;100.00;99305.84;7396626;19;20364;-68
2023/12/13 07:44:36;;;;;;;32.30;19.02;;;;;;;4.54;100.00;99314.47;7394609;19;20078;-68
2023/12/13 07:47:07;;;;;;;30.45;18.48;;;;;;;4.55;100.00;99309.25;7396963;19;20074;-68
2023/12/13 07:49:33;;;;;;;34.67;19.70;;;;;;;4.58;100.00;99303.13;7396414;19;20078;-68
2023/12/13 07:52:01;;;;;;;37.40;20.35;;;;;;;4.62;100.00;99306.53;7395909;19;20030;-68
2023/12/13 07:54:36;;;;;;;35.72;20.17;;;;;;;4.63;100.00;99306.50;7393287;19;20019;-68
2023/12/13 07:57:04;;;;;;;34.00;19.40;;;;;;;4.65;100.00;99304.72;7397180;19;20062;-68
2023/12/13 07:59:33;;;;;;;33.22;20.05;;;;;;;4.67;100.00;99300.34;7396729;19;20086;-69
2023/12/13 08:02:02;;;;;;;33.53;20.00;;;;;;;4.71;100.00;99306.31;7396680;19;20087;-69
2023/12/13 08:04:33;;;;;;;31.00;17.63;;;;;;;4.75;100.00;99310.56;7394456;19;20036;-68
2023/12/13 08:07:01;;;;;;;39.22;18.73;;;;;;;4.83;100.00;99319.06;7396821;19;20019;-68
2023/12/13 08:09:30;;;;;;;38.33;21.48;;;;;;;4.93;100.00;99311.06;7395715;19;20410;-67
2023/12/13 08:11:58;;;;;;;35.60;21.10;;;;;;;5.02;100.00;99314.34;7396184;19;20006;-68
2023/12/13 08:14:30;;;;;;;36.53;21.02;;;;;;;5.09;100.00;99312.44;7393806;19;20136;-69
2023/12/13 08:17:00;;;;;;;31.60;21.52;;;;;;;5.12;100.00;99307.19;7395207;19;20492;-69
2023/12/13 08:19:29;;;;;;;33.58;19.27;;;;;;;5.15;100.00;99311.47;7395419;19;20485;-68
2023/12/13 08:22:00;;;;;;;32.85;20.98;;;;;;;5.16;100.00;99311.44;7395671;19;20480;-68
2023/12/13 08:24:28;;;;;;;29.73;17.23;;;;;;;5.17;100.00;99307.94;7395204;19;20010;-68
2023/12/13 08:26:57;;;;;;;25.80;17.08;;;;;;;5.17;100.00;99312.31;7395638;19;20023;-68
2023/12/13 08:29:25;;;;;;;29.38;17.92;;;;;;;5.17;100.00;99299.28;7395507;19;20023;-69
2023/12/13 08:31:54;;;;;;;27.95;17.27;;;;;;;5.18;100.00;99308.78;7395318;19;20561;-69
2023/12/13 08:34:22;;;;;;;27.98;16.75;;;;;;;5.20;100.00;99314.81;7393346;19;20014;-69
2023/12/13 08:36:51;;;;;;;30.65;17.13;;;;;;;5.21;100.00;99311.34;7395116;19;20077;-69
2023/12/13 08:39:44;;;;;;;28.75;17.80;;;;;;;5.20;100.00;99312.22;7394999;19;20028;-68
2023/12/13 08:42:12;;;;;;;29.08;18.15;;;;;;;5.21;100.00;99317.38;7396516;19;20485;-68
2023/12/13 08:44:41;;;;;;;30.85;19.15;;;;;;;5.24;100.00;99323.41;7394749;19;20007;-68
2023/12/13 08:47:10;;;;;;;34.28;22.23;;;;;;;5.26;100.00;99319.00;7395011;19;20021;-68
2023/12/13 08:49:38;;;;;;;31.85;20.75;;;;;;;5.28;100.00;99325.91;7394817;19;20031;-69
2023/12/13 08:52:07;;;;;;;31.70;18.95;;;;;;;5.29;100.00;99318.94;7394529;19;20383;-70
2023/12/13 08:54:36;;;;;;;31.38;18.45;;;;;;;5.32;100.00;99329.28;7392242;19;20494;-69
2023/12/13 08:57:07;;;;;;;30.58;17.75;;;;;;;5.36;100.00;99330.94;7394747;19;20031;-69
2023/12/13 08:59:35;;;;;;;30.20;16.67;;;;;;;5.35;100.00;99324.00;7394652;19;20090;-69
2023/12/13 09:02:04;;;;;;;68.82;39.25;;;;;;;5.40;100.00;99329.97;7394506;19;20074;-69
2023/12/13 09:04:38;;;;;;;29.13;17.95;;;;;;;5.42;100.00;99329.91;7392575;19;20011;-69
2023/12/13 09:07:07;;;;;;;25.33;15.70;;;;;;;5.43;100.00;99327.28;7393743;19;20027;-69
2023/12/13 09:09:35;;;;;;;23.23;15.88;;;;;;;5.44;100.00;99329.00;7393850;19;20010;-68
2023/12/13 09:12:08;;;;;;;23.77;15.13;;;;;;;5.46;100.00;99329.81;7394389;19;20066;-68
2023/12/13 09:14:36;;;;;;;25.33;17.65;;;;;;;5.48;100.00;99329.78;7392434;19;20017;-68
2023/12/13 09:17:05;;;;;;;25.35;15.88;;;;;;;5.49;100.00;99331.50;7393916;19;20015;-68
2023/12/13 09:19:33;;;;;;;24.63;16.25;;;;;;;5.50;100.00;99328.84;7393469;19;20015;-68
2023/12/13 09:22:03;;;;;;;25.05;15.90;;;;;;;5.51;100.00;99330.56;7392279;19;20014;-67
2023/12/13 09:24:32;;;;;;;25.63;15.48;;;;;;;5.52;100.00;99334.00;7392443;19;20015;-67
2023/12/13 09:27:00;;;;;;;28.50;16.00;;;;;;;5.53;100.00;99339.19;7401500;19;20497;-67
2023/12/13 09:29:31;;;;;;;26.80;16.70;;;;;;;5.54;100.00;99337.44;7400853;19;20032;-67
2023/12/13 09:32:00;;;;;;;28.05;17.58;;;;;;;5.57;100.00;99334.75;7401125;19;20358;-67
2023/12/13 09:34:29;;;;;;;28.45;16.55;;;;;;;5.58;100.00;99339.06;7397901;19;20354;-66
2023/12/13 09:36:57;;;;;;;28.52;17.20;;;;;;;5.63;100.00;99347.63;7400668;19;20367;-67
2023/12/13 09:39:26;;;;;;;28.88;17.33;;;;;;;5.68;100.00;99340.56;7400679;19;20010;-66
2023/12/13 09:42:03;;;;;;;28.23;16.80;;;;;;;5.73;100.00;99340.47;7397979;19;20027;-66
2023/12/13 09:44:39;;;;;;;25.40;15.20;;;;;;;5.75;100.00;99343.88;7398204;19;20018;-66
2023/12/13 09:47:09;;;;;;;25.30;14.93;;;;;;;5.79;100.00;99339.47;7401794;19;20026;-67
2023/12/13 09:49:39;;;;;;;27.00;15.93;;;;;;;5.82;100.00;99344.59;7399837;19;20020;-67
2023/12/13 09:52:09;;;;;;;26.10;15.35;;;;;;;5.84;100.00;99337.59;7400124;19;20501;-67
2023/12/13 09:54:40;;;;;;;23.88;15.10;;;;;;;5.90;100.00;99347.00;7397653;19;20018;-67
2023/12/13 09:57:09;;;;;;;25.15;14.70;;;;;;;5.91;100.00;99341.75;7401072;19;20027;-67
2023/12/13 09:59:42;;;;;;;25.60;15.63;;;;;;;5.95;100.00;99337.31;7400189;19;20018;-67
2023/12/13 10:02:14;;;;;;;30.67;17.20;;;;;;;6.00;100.00;99333.75;7397087;19;20027;-67
2023/12/13 10:04:50;;;;;;;24.52;14.57;;;;;;;6.02;100.00;99329.34;7396704;19;20032;-67
2023/12/13 10:07:19;;;;;;;28.58;16.23;;;;;;;6.08;100.00;99337.88;7400474;19;20101;-68
2023/12/13 10:09:48;;;;;;;23.83;15.07;;;;;;;6.14;100.00;99327.31;7399491;19;20019;-67
2023/12/13 10:12:17;;;;;;;24.88;15.50;;;;;;;6.18;100.00;99327.19;7399312;19;20010;-67
2023/12/13 10:14:48;;;;;;;30.50;18.40;;;;;;;6.23;100.00;99334.91;7397243;19;20079;-68
2023/12/13 10:17:17;;;;;;;25.92;16.42;;;;;;;6.28;100.00;99332.16;7397112;19;20014;-67
2023/12/13 10:19:46;;;;;;;28.38;17.02;;;;;;;6.32;100.00;99329.44;7399262;19;20010;-68
2023/12/13 10:22:15;;;;;;;25.27;16.13;;;;;;;6.38;100.00;99335.38;7399880;19;20014;-68
2023/12/13 10:24:44;;;;;;;24.52;14.73;;;;;;;6.42;100.00;99331.78;7396858;19;20021;-67
2023/12/13 10:27:13;;;;;;;24.35;15.15;;;;;;;6.46;100.00;99325.63;7399860;19;20025;-67
2023/12/13 10:29:41;;;;;;;24.05;15.65;;;;;;;6.50;100.00;99340.25;7399476;19;20015;-68
2023/12/13 10:32:12;;;;;;;23.92;15.60;;;;;;;6.54;100.00;99326.25;7399332;19;20025;-68
2023/12/13 10:34:41;;;;;;;28.05;16.08;;;;;;;6.57;100.00;99323.56;7396355;19;20014;-67
2023/12/13 10:37:09;;;;;;;26.02;16.10;;;;;;;6.63;100.00;99333.78;7396183;19;20037;-68
2023/12/13 10:39:39;;;;;;;26.45;16.67;;;;;;;6.69;100.00;99328.41;7399125;19;20014;-67
2023/12/13 10:42:09;;;;;;;25.42;15.77;;;;;;;6.76;100.00;99317.81;7399099;19;20015;-66
2023/12/13 10:44:39;;;;;;;25.05;15.65;;;;;;;6.80;100.00;99324.66;7397007;19;20027;-66
2023/12/13 10:47:15;;;;;;;25.05;16.38;;;;;;;6.84;100.00;99324.50;7398793;19;20015;-67
2023/12/13 10:49:45;;;;;;;24.00;15.95;;;;;;;6.87;100.00;99323.56;7398678;19;20484;-66
2023/12/13 10:52:15;;;;;;;24.23;15.38;;;;;;;6.91;100.00;99319.97;7398900;19;20010;-66
2023/12/13 10:54:45;;;;;;;31.30;17.63;;;;;;;6.93;100.00;99326.00;7395946;19;20014;-66
2023/12/13 10:57:13;;;;;;;26.92;16.77;;;;;;;6.94;100.00;99324.25;7398198;19;20477;-67
2023/12/13 10:59:43;;;;;;;25.58;17.33;;;;;;;6.96;100.00;99325.91;7398249;19;20074;-67
2023/12/13 11:02:18;;;;;;;25.90;16.85;;;;;;;6.97;100.00;99326.75;7400050;19;20021;-67
2023/12/13 11:04:48;;;;;;;27.38;15.88;;;;;;;6.97;100.00;99330.22;7397447;19;20010;-67
2023/12/13 11:07:16;;;;;;;26.17;17.20;;;;;;;6.98;100.00;99331.91;7397763;19;20074;-66
2023/12/13 11:09:52;;;;;;;27.50;18.27;;;;;;;6.98;100.00;99328.47;7397342;19;20006;-67
2023/12/13 11:12:21;;;;;;;35.53;22.40;;;;;;;6.98;100.00;99334.53;7397865;19;20029;-68
2023/12/13 11:14:51;;;;;;;30.77;20.13;;;;;;;6.98;100.00;99333.69;7396232;19;20379;-67
2023/12/13 11:17:24;;;;;;;31.58;20.23;;;;;;;6.95;100.00;99323.34;7397561;19;20315;-67
2023/12/13 11:19:53;;;;;;;34.83;22.38;;;;;;;6.93;100.00;99327.75;7396107;19;20489;-68
2023/12/13 11:22:25;;;;;;;38.85;23.13;;;;;;;6.92;100.00;99329.50;7395826;19;20023;-68
2023/12/13 11:25:03;;;;;;;29.73;18.70;;;;;;;6.95;100.00;99333.75;7397475;19;20011;-68
2023/12/13 11:27:33;;;;;;;29.10;18.10;;;;;;;6.95;100.00;99332.03;7397566;19;20090;-68